createdAt,value
2023-02-28T00:02:54.084Z,91.90
2023-02-28T00:05:56.306Z,92.10
2023-02-28T00:08:58.416Z,92.10
2023-02-28T00:12:01.543Z,92.00
2023-02-28T00:15:10.550Z,92.00
2023-02-28T00:18:14.584Z,92.30
2023-02-28T00:21:18.490Z,92.20
2023-02-28T00:24:21.014Z,92.40
2023-02-28T00:27:23.429Z,92.40
2023-02-28T00:30:25.742Z,92.50
2023-02-28T00:33:28.797Z,92.60
2023-02-28T00:36:31.087Z,92.60
2023-02-28T00:39:36.638Z,92.60
2023-02-28T00:42:38.948Z,92.80
2023-02-28T00:45:41.139Z,92.80
2023-02-28T00:48:43.436Z,92.90
2023-02-28T00:51:45.644Z,92.90
2023-02-28T00:54:47.778Z,92.90
2023-02-28T00:57:49.935Z,93.10
2023-02-28T01:00:53.915Z,93.10
2023-02-28T01:03:56.177Z,93.20
2023-02-28T01:06:58.518Z,93.70
2023-02-28T01:10:00.743Z,93.80
2023-02-28T01:13:03.130Z,93.90
2023-02-28T01:16:05.684Z,93.90
2023-02-28T01:19:08.081Z,93.90
2023-02-28T01:22:10.205Z,94.00
2023-02-28T01:25:12.389Z,94.00
2023-02-28T01:28:14.666Z,94.00
2023-02-28T01:31:17.026Z,94.20
2023-02-28T01:34:20.519Z,94.20
2023-02-28T01:37:22.832Z,94.20
2023-02-28T01:40:25.060Z,94.10
2023-02-28T01:43:49.582Z,94.00
2023-02-28T01:46:51.701Z,94.00
2023-02-28T01:49:54.423Z,94.00
2023-02-28T01:53:01.352Z,94.40
2023-02-28T01:56:07.347Z,94.10
2023-02-28T01:59:09.859Z,94.00
2023-02-28T02:02:12.198Z,94.00
2023-02-28T02:05:19.842Z,94.20
2023-02-28T02:08:26.557Z,94.10
2023-02-28T02:11:31.073Z,94.30
2023-02-28T02:15:08.178Z,94.20
2023-02-28T02:18:37.975Z,94.40
2023-02-28T02:21:58.881Z,94.40
2023-02-28T02:25:18.637Z,94.40
2023-02-28T02:28:38.620Z,94.40
2023-02-28T02:31:53.743Z,94.50
2023-02-28T02:35:01.446Z,94.50
2023-02-28T02:38:24.646Z,94.30
2023-02-28T02:41:50.513Z,94.30
2023-02-28T02:45:01.563Z,94.50
2023-02-28T02:48:08.186Z,94.50
2023-02-28T02:51:19.302Z,94.50
2023-02-28T02:54:29.906Z,94.70
2023-02-28T02:57:48.801Z,94.60
2023-02-28T03:00:54.905Z,94.60
2023-02-28T03:04:00.628Z,94.60
2023-02-28T03:07:02.876Z,94.70
2023-02-28T03:10:32.968Z,95.00
2023-02-28T03:13:53.616Z,94.90
2023-02-28T03:17:13.240Z,94.90
2023-02-28T03:20:49.404Z,94.80
2023-02-28T03:24:27.969Z,95.00
2023-02-28T03:27:53.390Z,95.20
2023-02-28T03:31:07.238Z,95.30
2023-02-28T03:34:19.762Z,95.10
2023-02-28T03:37:24.992Z,95.00
2023-02-28T03:40:33.625Z,95.10
2023-02-28T03:43:42.168Z,95.00
2023-02-28T03:46:51.365Z,95.00
2023-02-28T03:50:00.428Z,95.10
2023-02-28T03:53:26.797Z,95.00
2023-02-28T03:56:35.579Z,95.40
2023-02-28T03:59:46.434Z,95.50
2023-02-28T04:02:53.757Z,95.50
2023-02-28T04:05:58.316Z,95.10
2023-02-28T04:09:01.223Z,95.20
2023-02-28T04:12:05.924Z,95.20
2023-02-28T04:15:18.123Z,95.60
2023-02-28T04:18:20.362Z,95.70
2023-02-28T04:21:23.283Z,95.80
2023-02-28T04:24:28.892Z,95.80
2023-02-28T04:27:32.731Z,95.80
2023-02-28T04:30:37.230Z,95.70
2023-02-28T04:33:39.353Z,95.80
2023-02-28T04:36:42.072Z,95.80
2023-02-28T04:39:44.806Z,95.70
2023-02-28T04:42:46.883Z,95.70
2023-02-28T04:45:49.015Z,95.80
2023-02-28T04:48:51.408Z,95.80
2023-02-28T04:51:54.170Z,95.90
2023-02-28T04:54:56.472Z,96.20
2023-02-28T04:57:59.030Z,96.10
2023-02-28T05:01:16.379Z,96.10
2023-02-28T05:04:19.185Z,96.30
2023-02-28T05:07:21.306Z,96.40
2023-02-28T05:10:24.366Z,97.00
2023-02-28T05:13:26.492Z,96.70
2023-02-28T05:16:30.231Z,96.60
2023-02-28T05:19:38.686Z,96.60
2023-02-28T05:22:44.916Z,96.50
2023-02-28T05:25:47.914Z,96.60
2023-02-28T05:28:50.131Z,96.50
2023-02-28T05:31:52.433Z,96.50
2023-02-28T05:34:54.670Z,96.50
2023-02-28T05:37:57.900Z,96.50
2023-02-28T05:41:00.197Z,96.60
2023-02-28T05:44:02.486Z,96.60
2023-02-28T05:47:04.747Z,96.30
2023-02-28T05:50:07.693Z,96.10
2023-02-28T05:53:09.872Z,96.20
2023-02-28T05:56:12.108Z,95.90
2023-02-28T05:59:15.263Z,95.70
2023-02-28T06:02:19.015Z,93.40
2023-02-28T06:05:21.319Z,93.10
2023-02-28T06:08:23.421Z,92.40
2023-02-28T06:11:28.900Z,92.20
2023-02-28T06:14:32.342Z,91.90
2023-02-28T06:17:34.532Z,90.80
2023-02-28T06:20:37.455Z,90.50
2023-02-28T06:23:39.872Z,90.40
2023-02-28T06:26:42.034Z,89.40
2023-02-28T06:29:44.290Z,89.50
2023-02-28T06:32:46.647Z,89.00
2023-02-28T06:35:51.726Z,89.50
2023-02-28T06:38:55.916Z,88.00
2023-02-28T06:41:58.489Z,85.50
2023-02-28T06:45:00.926Z,85.50
2023-02-28T06:48:04.129Z,84.90
2023-02-28T06:51:15.338Z,84.40
2023-02-28T06:54:17.634Z,84.70
2023-02-28T06:57:19.786Z,83.40
2023-02-28T07:00:22.680Z,84.00
2023-02-28T07:03:25.285Z,83.60
2023-02-28T07:06:27.904Z,82.60
2023-02-28T07:09:31.260Z,81.30
2023-02-28T07:12:33.923Z,81.20
2023-02-28T07:15:42.334Z,80.50
2023-02-28T07:18:45.925Z,79.80
2023-02-28T07:21:48.072Z,80.20
2023-02-28T07:24:50.267Z,80.00
2023-02-28T07:27:52.560Z,80.20
2023-02-28T07:30:54.806Z,79.80
2023-02-28T07:33:57.567Z,79.50
2023-02-28T07:36:59.843Z,79.40
2023-02-28T07:40:15.265Z,79.70
2023-02-28T07:43:17.434Z,80.00
2023-02-28T07:46:21.711Z,80.50
2023-02-28T07:49:23.893Z,80.30
2023-02-28T07:52:26.223Z,79.90
2023-02-28T07:55:28.712Z,80.30
2023-02-28T07:58:35.129Z,80.50
2023-02-28T08:01:37.283Z,80.50
2023-02-28T08:04:39.482Z,81.20
2023-02-28T08:07:41.774Z,80.90
2023-02-28T08:10:49.182Z,80.10
2023-02-28T08:13:51.986Z,80.20
2023-02-28T08:16:54.179Z,80.20
2023-02-28T08:19:56.415Z,80.00
2023-02-28T08:22:59.491Z,80.80
2023-02-28T08:26:03.459Z,80.20
2023-02-28T08:29:07.038Z,78.90
2023-02-28T08:32:20.552Z,73.80
2023-02-28T08:35:31.029Z,72.20
2023-02-28T08:38:33.349Z,71.10
2023-02-28T08:41:35.879Z,70.90
2023-02-28T08:44:38.041Z,68.70
2023-02-28T08:47:40.237Z,64.20
2023-02-28T08:50:43.910Z,62.90
2023-02-28T08:53:47.247Z,59.30
2023-02-28T08:56:49.649Z,54.90
2023-02-28T08:59:52.676Z,53.40
2023-02-28T09:02:55.887Z,47.40
2023-02-28T09:06:00.942Z,45.20
2023-02-28T09:09:05.686Z,44.20
2023-02-28T09:12:08.984Z,41.90
2023-02-28T09:15:11.803Z,40.70
2023-02-28T09:18:14.424Z,40.70
2023-02-28T09:21:18.756Z,40.30
2023-02-28T09:24:21.779Z,42.00
2023-02-28T09:27:23.992Z,44.60
2023-02-28T09:30:26.579Z,47.50
2023-02-28T09:33:29.829Z,47.10
2023-02-28T09:36:43.703Z,45.00
2023-02-28T09:39:48.493Z,43.40
2023-02-28T09:42:53.893Z,41.30
2023-02-28T09:46:27.169Z,40.40
2023-02-28T09:49:50.078Z,41.50
2023-02-28T09:52:54.787Z,43.50
2023-02-28T09:55:59.521Z,45.90
2023-02-28T09:59:01.750Z,47.30
2023-02-28T10:02:40.379Z,46.10
2023-02-28T10:05:58.684Z,47.90
2023-02-28T10:09:15.452Z,50.60
2023-02-28T10:12:18.461Z,46.80
2023-02-28T10:15:24.627Z,48.30
2023-02-28T10:18:36.891Z,51.30
2023-02-28T10:21:47.387Z,50.30
2023-02-28T10:24:56.537Z,48.20
2023-02-28T10:28:22.832Z,49.00
2023-02-28T10:31:28.943Z,48.20
2023-02-28T10:34:31.261Z,50.10
2023-02-28T10:37:39.255Z,50.10
2023-02-28T10:40:41.362Z,52.20
2023-02-28T10:43:46.328Z,48.00
2023-02-28T10:46:49.503Z,46.80
2023-02-28T10:49:53.786Z,46.40
2023-02-28T10:52:56.576Z,47.00
2023-02-28T10:56:04.605Z,45.00
2023-02-28T10:59:10.085Z,43.30
2023-02-28T11:02:44.090Z,41.30
2023-02-28T11:05:46.859Z,39.60
2023-02-28T11:08:54.929Z,37.60
2023-02-28T11:11:57.579Z,36.80
2023-02-28T11:15:07.759Z,34.60
2023-02-28T11:18:28.010Z,33.00
2023-02-28T11:21:35.022Z,32.60
2023-02-28T11:24:43.175Z,32.80
2023-02-28T11:27:51.488Z,31.60
2023-02-28T11:31:15.142Z,33.10
2023-02-28T11:34:27.139Z,30.50
2023-02-28T11:37:31.375Z,31.30
2023-02-28T11:40:47.693Z,31.30
2023-02-28T11:44:07.187Z,26.90
2023-02-28T11:47:36.344Z,29.80
2023-02-28T11:51:05.673Z,31.50
2023-02-28T11:54:19.952Z,30.90
2023-02-28T11:57:47.688Z,31.80
2023-02-28T12:01:44.037Z,32.40
2023-02-28T12:05:10.446Z,33.80
2023-02-28T12:08:24.696Z,37.10
2023-02-28T12:11:56.793Z,39.50
2023-02-28T12:15:13.893Z,43.20
2023-02-28T12:18:28.004Z,43.60
2023-02-28T12:21:49.889Z,44.10
2023-02-28T12:25:19.852Z,44.20
2023-02-28T12:28:27.639Z,45.50
2023-02-28T12:31:36.959Z,45.30
2023-02-28T12:34:44.109Z,45.60
2023-02-28T12:38:02.419Z,47.60
2023-02-28T12:41:17.325Z,47.30
2023-02-28T12:44:24.899Z,46.40
2023-02-28T12:47:27.084Z,42.00
2023-02-28T12:50:32.623Z,42.10
2023-02-28T12:53:37.504Z,41.80
2023-02-28T12:56:46.294Z,43.30
2023-02-28T12:59:52.289Z,41.70
2023-02-28T13:03:25.051Z,40.70
2023-02-28T13:06:53.281Z,41.60
2023-02-28T13:09:59.047Z,41.90
2023-02-28T13:13:05.135Z,40.80
2023-02-28T13:16:10.348Z,42.20
2023-02-28T13:19:13.014Z,43.80
2023-02-28T13:22:27.506Z,45.30
2023-02-28T13:25:35.665Z,46.80
2023-02-28T13:29:17.514Z,47.40
2023-02-28T13:32:37.743Z,47.00
2023-02-28T13:35:46.497Z,47.60
2023-02-28T13:39:11.944Z,48.50
2023-02-28T13:42:21.782Z,51.00
2023-02-28T13:45:31.520Z,51.80
2023-02-28T13:48:33.856Z,52.30
2023-02-28T13:51:46.770Z,52.20
2023-02-28T13:55:28.212Z,52.70
2023-02-28T13:58:51.489Z,52.80
2023-02-28T14:01:56.756Z,52.50
2023-02-28T14:05:19.401Z,53.10
2023-02-28T14:08:24.470Z,52.30
2023-02-28T14:11:35.375Z,53.50
2023-02-28T14:14:37.548Z,53.60
2023-02-28T14:17:40.070Z,54.20
2023-02-28T14:20:43.450Z,53.10
2023-02-28T14:24:10.171Z,54.20
2023-02-28T14:27:19.952Z,55.40
2023-02-28T14:30:43.481Z,56.50
2023-02-28T14:34:05.839Z,56.80
2023-02-28T14:37:17.623Z,56.40
2023-02-28T14:40:34.032Z,56.50
2023-02-28T14:43:36.405Z,55.80
2023-02-28T14:46:40.931Z,56.50
2023-02-28T14:49:48.784Z,56.80
2023-02-28T14:53:01.005Z,57.40
2023-02-28T14:56:03.483Z,57.10
2023-02-28T14:59:19.843Z,56.70
2023-02-28T15:02:26.130Z,57.40
2023-02-28T15:05:32.058Z,57.20
2023-02-28T15:08:37.354Z,57.90
2023-02-28T15:11:41.496Z,57.80
2023-02-28T15:14:45.489Z,58.30
2023-02-28T15:17:55.719Z,58.20
2023-02-28T15:21:07.504Z,59.00
2023-02-28T15:24:15.995Z,58.60
2023-02-28T15:27:32.287Z,58.10
2023-02-28T15:30:34.596Z,58.80
2023-02-28T15:33:36.747Z,58.20
2023-02-28T15:36:40.707Z,56.90
2023-02-28T15:39:45.685Z,57.50
2023-02-28T15:43:06.238Z,57.00
2023-02-28T15:46:14.538Z,57.20
2023-02-28T15:49:22.286Z,57.00
2023-02-28T15:52:42.735Z,56.10
2023-02-28T15:55:45.535Z,56.80
2023-02-28T15:58:47.671Z,57.70
2023-02-28T16:02:12.419Z,57.90
2023-02-28T16:05:33.121Z,58.70
2023-02-28T16:08:35.289Z,58.30
2023-02-28T16:11:47.016Z,58.50
2023-02-28T16:14:53.044Z,58.30
2023-02-28T16:17:56.726Z,58.60
2023-02-28T16:20:58.904Z,58.40
2023-02-28T16:24:01.186Z,59.20
2023-02-28T16:27:03.399Z,59.50
2023-02-28T16:30:07.460Z,59.80
2023-02-28T16:33:10.557Z,60.00
2023-02-28T16:36:18.474Z,59.90
2023-02-28T16:39:23.429Z,59.70
2023-02-28T16:42:28.626Z,60.00
2023-02-28T16:45:30.984Z,59.30
2023-02-28T16:48:33.254Z,58.70
2023-02-28T16:51:36.043Z,59.80
2023-02-28T16:54:39.177Z,60.60
2023-02-28T16:57:41.914Z,60.40
2023-02-28T17:00:44.841Z,64.00
2023-02-28T17:03:47.008Z,65.60
2023-02-28T17:06:49.405Z,66.40
2023-02-28T17:09:51.712Z,67.20
2023-02-28T17:12:58.344Z,67.40
2023-02-28T17:16:06.358Z,67.70
2023-02-28T17:19:13.282Z,67.70
2023-02-28T17:22:15.858Z,67.60
2023-02-28T17:25:18.584Z,67.80
2023-02-28T17:28:22.827Z,67.90
2023-02-28T17:31:27.889Z,67.80
2023-02-28T17:34:30.096Z,67.80
2023-02-28T17:37:32.379Z,67.10
2023-02-28T17:40:35.077Z,67.20
2023-02-28T17:43:37.273Z,67.10
2023-02-28T17:46:47.419Z,67.30
2023-02-28T17:49:49.819Z,67.50
2023-02-28T17:52:51.928Z,67.40
2023-02-28T17:55:54.147Z,67.30
2023-02-28T17:58:57.551Z,67.20
2023-02-28T18:02:04.809Z,67.70
2023-02-28T18:05:07.751Z,68.40
2023-02-28T18:08:12.843Z,68.70
2023-02-28T18:11:18.425Z,69.50
2023-02-28T18:14:23.871Z,69.30
2023-02-28T18:17:27.588Z,69.50
2023-02-28T18:20:29.941Z,70.00
2023-02-28T18:23:32.414Z,70.10
2023-02-28T18:26:35.134Z,70.70
2023-02-28T18:29:40.069Z,70.80
2023-02-28T18:32:44.696Z,71.60
2023-02-28T18:35:46.894Z,72.10
2023-02-28T18:38:50.743Z,72.30
2023-02-28T18:41:53.077Z,72.00
2023-02-28T18:44:55.220Z,72.60
2023-02-28T18:47:57.356Z,73.10
2023-02-28T18:50:59.749Z,73.40
2023-02-28T18:54:01.817Z,72.90
2023-02-28T18:57:04.166Z,73.40
2023-02-28T19:00:09.571Z,73.50
2023-02-28T19:03:13.024Z,73.80
2023-02-28T19:06:18.781Z,73.90
2023-02-28T19:09:21.305Z,74.00
2023-02-28T19:12:23.481Z,74.70
2023-02-28T19:15:25.654Z,75.30
2023-02-28T19:18:27.758Z,75.30
2023-02-28T19:21:30.007Z,75.20
2023-02-28T19:24:32.189Z,75.10
2023-02-28T19:27:34.860Z,75.70
2023-02-28T19:30:37.065Z,75.60
2023-02-28T19:33:39.843Z,76.30
2023-02-28T19:36:42.994Z,76.00
2023-02-28T19:39:46.310Z,76.10
2023-02-28T19:42:48.613Z,77.40
2023-02-28T19:45:50.783Z,77.50
2023-02-28T19:48:56.157Z,77.90
2023-02-28T19:51:59.661Z,78.20
2023-02-28T19:55:01.817Z,77.90
2023-02-28T19:58:04.054Z,78.00
2023-02-28T20:01:14.757Z,78.20
2023-02-28T20:04:16.916Z,78.20
2023-02-28T20:07:23.705Z,78.60
2023-02-28T20:10:25.997Z,78.60
2023-02-28T20:13:28.677Z,79.00
2023-02-28T20:16:31.864Z,79.00
2023-02-28T20:19:34.416Z,78.90
2023-02-28T20:22:38.472Z,78.80
2023-02-28T20:25:41.667Z,79.30
2023-02-28T20:28:44.386Z,79.20
2023-02-28T20:31:46.953Z,80.20
2023-02-28T20:34:49.220Z,80.70
2023-02-28T20:37:53.333Z,80.70
2023-02-28T20:40:56.586Z,80.70
2023-02-28T20:43:59.622Z,81.00
2023-02-28T20:47:01.823Z,80.90
2023-02-28T20:50:04.392Z,80.80
2023-02-28T20:53:07.036Z,80.90
2023-02-28T20:56:14.150Z,81.50
2023-02-28T20:59:16.683Z,81.60
2023-02-28T21:02:21.509Z,81.60
2023-02-28T21:05:24.527Z,81.90
2023-02-28T21:08:26.623Z,82.10
2023-02-28T21:11:31.690Z,82.00
2023-02-28T21:14:35.298Z,82.10
2023-02-28T21:17:37.593Z,82.60
2023-02-28T21:20:39.697Z,82.60
2023-02-28T21:23:42.694Z,82.40
2023-02-28T21:26:46.096Z,83.50
2023-02-28T21:29:49.187Z,82.70
2023-02-28T21:32:51.347Z,82.50
2023-02-28T21:35:59.805Z,82.20
2023-02-28T21:39:09.360Z,82.10
2023-02-28T21:42:18.166Z,82.20
2023-02-28T21:45:20.345Z,82.20
2023-02-28T21:48:22.507Z,82.00
2023-02-28T21:51:27.664Z,82.60
2023-02-28T21:54:30.450Z,82.50
2023-02-28T21:57:36.062Z,82.20
2023-02-28T22:00:38.363Z,82.50
2023-02-28T22:03:40.920Z,82.60
2023-02-28T22:06:45.639Z,82.30
2023-02-28T22:09:47.878Z,82.20
2023-02-28T22:12:50.036Z,82.20
2023-02-28T22:15:53.190Z,82.30
2023-02-28T22:18:55.690Z,82.10
2023-02-28T22:21:58.874Z,82.90
2023-02-28T22:25:01.106Z,82.80
2023-02-28T22:28:03.283Z,82.90
2023-02-28T22:31:19.556Z,83.10
2023-02-28T22:34:21.840Z,83.30
2023-02-28T22:37:24.007Z,83.20
2023-02-28T22:40:35.559Z,83.50
2023-02-28T22:43:39.534Z,83.70
2023-02-28T22:46:41.744Z,83.70
2023-02-28T22:49:44.074Z,83.70
2023-02-28T22:52:46.236Z,83.60
2023-02-28T22:55:55.760Z,83.40
2023-02-28T22:59:00.387Z,83.30
2023-02-28T23:02:02.551Z,83.30
2023-02-28T23:05:04.851Z,83.60
2023-02-28T23:08:07.052Z,83.60
2023-02-28T23:11:09.678Z,83.70
2023-02-28T23:14:15.918Z,83.10
2023-02-28T23:17:18.120Z,83.30
2023-02-28T23:20:21.218Z,83.10
2023-02-28T23:23:24.944Z,84.40
2023-02-28T23:26:27.790Z,83.80
2023-02-28T23:29:30.551Z,84.00
2023-02-28T23:32:40.598Z,84.20
2023-02-28T23:35:42.818Z,84.40
2023-02-28T23:38:49.903Z,84.60
2023-02-28T23:41:54.483Z,85.20
2023-02-28T23:44:56.673Z,84.90
2023-02-28T23:47:58.779Z,84.70
2023-02-28T23:51:08.811Z,85.40
2023-02-28T23:54:11.261Z,85.20
2023-02-28T23:57:13.798Z,85.20
